Terminal Aerodrome Forecast
Issued by NWS

Home | Current Version | Previous Version | Text Only | Print | Product List | Glossary On
Versions: 1 2 3 4 5 6 7 8 9 10 11 12 13 14 15
000
FTUS44 KCRP 241213 AAA
TAFLRD
TAF AMD
KLRD 241213Z 2412/2512 11010KT P6SM BKN150
     FM241600 18011G18KT P6SM SCT045
     FM250700 15015KT P6SM BKN015 OVC030=

USA.gov is the U.S. government's official web portal to all federal, state and local government web resources and services.